KLZZ

Lampasas Airport

Lampasas, Texas, USA
METAR KLZZ 220955Z AUTO 00000KT 7SM SCT012 19/19 A2998 RMK AO2 T01890185
Observed Flight Rules
May-22 @ 09:55 UTC (22 minutes ago) Visual Flight Rules
Visibility Clouds
7 miles
  • Scattered at 1,200' AGL
Temperatures Readings
Current 19°C / 66°F
Dewpoint 19°C / 66°F
Humidity 100%
Altimeter 29.98" Hg
Pressure 1015 hPa
Elevation 371
METAR KLZZ 220955Z AUTO 00000KT 7SM SCT012 19/19 A2998 RMK AO2 T01890185
Observed Flight Rules
May-22 @ 09:55 UTC
(22 minutes ago)
VFR
Clouds
  • Scattered at 1,200' AGL
Temperature Dewpoint
19°C / 66°F 19°C / 66°F
Humidity Altimeter Pressure
100% 29.98" Hg 1015 hPa